Time;durP1;ratioP1;P1;durP2;ratioP2;P2;SDS_P1;SDS_P2;PMS_P1;PMS_P2;Temp;Humidity;BMP_temperature;BMP_pressure;BME280_temperature;BME280_humidity;BME280_pressure;Samples;Min_cycle;Max_cycle;Signal;HPM_P1;HPM_P2
2024/01/10 00:01:51;;;;;;;4.38;2.30;;;-2.10;62.80;;;;;;5054450;28;20017;-30
2024/01/10 00:04:16;;;;;;;3.22;2.00;;;-2.10;62.70;;;;;;5054409;28;20027;-30
2024/01/10 00:06:43;;;;;;;3.53;1.90;;;-2.10;62.70;;;;;;5054394;28;20056;-31
2024/01/10 00:09:08;;;;;;;3.47;2.00;;;-2.10;62.90;;;;;;5054779;28;20016;-30
2024/01/10 00:11:34;;;;;;;3.55;2.20;;;-2.10;63.00;;;;;;5054810;28;20108;-30
2024/01/10 00:14:00;;;;;;;2.85;1.60;;;-2.10;63.20;;;;;;5054399;28;20469;-30
2024/01/10 00:16:26;;;;;;;5.05;2.08;;;-2.10;63.40;;;;;;5054665;28;20077;-31
2024/01/10 00:18:52;;;;;;;4.95;2.90;;;-2.10;63.00;;;;;;5054273;28;20031;-29
2024/01/10 00:21:17;;;;;;;3.92;2.20;;;-2.10;62.50;;;;;;5054479;28;20024;-31
2024/01/10 00:23:43;;;;;;;5.13;2.35;;;-2.20;62.60;;;;;;5054160;28;20443;-37
2024/01/10 00:26:09;;;;;;;3.83;2.30;;;-2.20;63.00;;;;;;5054145;28;20017;-33
2024/01/10 00:28:34;;;;;;;3.80;2.20;;;-2.20;63.20;;;;;;5054269;28;20078;-29
2024/01/10 00:31:00;;;;;;;4.28;2.22;;;-2.20;63.20;;;;;;5054065;28;20029;-31
2024/01/10 00:33:25;;;;;;;4.45;2.53;;;-2.20;63.40;;;;;;5053899;28;20415;-40
2024/01/10 00:35:51;;;;;;;5.93;2.25;;;-2.20;63.40;;;;;;5054061;28;20021;-31
2024/01/10 00:38:16;;;;;;;4.93;2.30;;;-2.20;63.50;;;;;;5053922;28;20032;-31
2024/01/10 00:40:42;;;;;;;4.07;2.30;;;-2.30;63.70;;;;;;5053867;28;20029;-30
2024/01/10 00:43:08;;;;;;;4.55;2.35;;;-2.30;63.40;;;;;;5054174;28;20625;-30
2024/01/10 00:45:33;;;;;;;4.40;2.60;;;-2.30;63.60;;;;;;5053811;28;20086;-37
2024/01/10 00:47:59;;;;;;;4.88;2.42;;;-2.30;63.80;;;;;;5053888;28;20381;-31
2024/01/10 00:50:24;;;;;;;3.92;2.40;;;-2.30;63.70;;;;;;5052781;28;20383;-35
2024/01/10 00:52:50;;;;;;;5.80;2.20;;;-2.40;63.80;;;;;;5053705;28;20075;-33
2024/01/10 00:55:15;;;;;;;4.00;2.30;;;-2.40;64.00;;;;;;5053632;28;20416;-37
2024/01/10 00:57:41;;;;;;;4.07;2.20;;;-2.40;64.20;;;;;;5053439;28;20465;-43
2024/01/10 01:00:09;;;;;;;4.25;2.10;;;-2.40;64.40;;;;;;5052134;28;20033;-32
2024/01/10 01:02:35;;;;;;;5.45;2.53;;;-2.40;64.50;;;;;;5053619;28;20020;-32
2024/01/10 01:05:01;;;;;;;4.50;1.90;;;-2.40;64.60;;;;;;5053393;28;20037;-34
2024/01/10 01:07:27;;;;;;;4.25;2.22;;;-2.40;64.70;;;;;;5053159;28;20060;-33
2024/01/10 01:09:53;;;;;;;3.00;1.98;;;-2.40;64.70;;;;;;5053641;28;20045;-30
2024/01/10 01:12:18;;;;;;;4.18;2.38;;;-2.40;64.70;;;;;;5053426;28;20537;-34
2024/01/10 01:14:44;;;;;;;4.15;2.38;;;-2.40;64.80;;;;;;5053184;28;20060;-34
2024/01/10 01:17:09;;;;;;;4.13;2.10;;;-2.40;64.70;;;;;;5053198;28;20051;-35
2024/01/10 01:19:35;;;;;;;4.20;2.22;;;-2.40;64.50;;;;;;5053146;28;20119;-31
2024/01/10 01:22:00;;;;;;;4.68;2.25;;;-2.40;64.70;;;;;;5052907;28;20036;-31
2024/01/10 01:24:26;;;;;;;4.32;2.50;;;-2.40;64.90;;;;;;5052787;28;20021;-33
2024/01/10 01:26:52;;;;;;;4.78;2.42;;;-2.40;64.90;;;;;;5053292;28;20025;-30
2024/01/10 01:29:17;;;;;;;4.60;2.40;;;-2.50;64.80;;;;;;5053202;28;20028;-31
2024/01/10 01:31:43;;;;;;;4.68;2.30;;;-2.50;65.00;;;;;;5052889;28;20039;-33
2024/01/10 01:34:09;;;;;;;5.00;2.22;;;-2.50;65.10;;;;;;5052738;28;20547;-30
2024/01/10 01:36:34;;;;;;;3.88;2.00;;;-2.40;65.20;;;;;;5052657;28;20468;-33
2024/01/10 01:39:00;;;;;;;4.13;2.22;;;-2.50;65.10;;;;;;5052765;28;20028;-30
2024/01/10 01:41:26;;;;;;;4.28;2.30;;;-2.50;65.10;;;;;;5051145;28;20037;-32
2024/01/10 01:43:51;;;;;;;4.25;2.53;;;-2.50;65.10;;;;;;5052639;28;20031;-31
2024/01/10 01:46:18;;;;;;;4.07;2.50;;;-2.50;65.10;;;;;;5052598;28;20107;-30
2024/01/10 01:48:45;;;;;;;4.03;2.53;;;-2.50;65.00;;;;;;5051209;28;20521;-35
2024/01/10 01:51:14;;;;;;;3.67;2.20;;;-2.50;64.60;;;;;;5052872;28;20124;-32
2024/01/10 01:53:41;;;;;;;3.83;2.42;;;-2.50;64.70;;;;;;5052398;28;20029;-32
2024/01/10 01:56:08;;;;;;;4.28;2.33;;;-2.60;64.60;;;;;;5052586;28;20036;-31
2024/01/10 01:58:36;;;;;;;6.00;2.88;;;-2.60;64.90;;;;;;5052459;28;20040;-29
2024/01/10 02:01:05;;;;;;;3.50;2.20;;;-2.60;65.00;;;;;;5052010;28;20029;-32
2024/01/10 02:03:34;;;;;;;5.18;2.50;;;-2.70;65.10;;;;;;5052273;28;20442;-30
2024/01/10 02:06:03;;;;;;;3.92;2.38;;;-2.70;65.30;;;;;;5052138;28;20017;-30
2024/01/10 02:08:35;;;;;;;4.05;2.50;;;-2.70;65.30;;;;;;5052057;28;20033;-30
2024/01/10 02:11:02;;;;;;;3.83;2.45;;;-2.70;65.50;;;;;;5052456;28;20389;-33
2024/01/10 02:13:29;;;;;;;5.45;2.65;;;-2.70;65.30;;;;;;5052386;28;20051;-31
2024/01/10 02:15:55;;;;;;;4.90;2.35;;;-2.70;65.30;;;;;;5052444;28;20024;-30
2024/01/10 02:18:21;;;;;;;5.43;2.85;;;-2.70;65.50;;;;;;5052139;28;20029;-33
2024/01/10 02:20:46;;;;;;;6.35;2.70;;;-2.70;65.50;;;;;;5051835;28;20358;-30
2024/01/10 02:23:12;;;;;;;4.40;2.35;;;-2.70;65.50;;;;;;5052107;28;20031;-29
2024/01/10 02:25:39;;;;;;;4.55;2.60;;;-2.70;65.60;;;;;;5051619;28;20100;-31
2024/01/10 02:28:05;;;;;;;5.93;2.72;;;-2.70;65.70;;;;;;5051637;28;20031;-29
2024/01/10 02:30:30;;;;;;;3.42;2.40;;;-2.80;65.80;;;;;;5051997;28;20025;-31
2024/01/10 02:32:56;;;;;;;5.03;2.55;;;-2.70;65.90;;;;;;5051770;28;20081;-31
2024/01/10 02:35:21;;;;;;;4.93;2.50;;;-2.70;66.00;;;;;;5051613;28;20051;-34
2024/01/10 02:37:49;;;;;;;4.90;2.50;;;-2.80;66.00;;;;;;5051705;28;20086;-34
2024/01/10 02:40:15;;;;;;;5.10;2.65;;;-2.80;65.80;;;;;;5051595;28;20124;-30
2024/01/10 02:42:41;;;;;;;4.53;2.67;;;-2.90;66.10;;;;;;5051705;28;20096;-31
2024/01/10 02:45:07;;;;;;;4.78;2.50;;;-2.80;66.10;;;;;;5051603;28;20453;-30
2024/01/10 02:47:33;;;;;;;4.70;2.58;;;-2.90;66.30;;;;;;5051412;28;20040;-30
2024/01/10 02:49:58;;;;;;;5.40;2.10;;;-2.90;66.50;;;;;;5051478;28;20109;-29
2024/01/10 02:52:24;;;;;;;4.40;2.50;;;-2.90;66.60;;;;;;5051367;28;20032;-30
2024/01/10 02:54:49;;;;;;;5.32;2.50;;;-2.90;66.60;;;;;;5051379;28;20112;-29
2024/01/10 02:57:15;;;;;;;4.50;2.60;;;-2.90;66.70;;;;;;5051452;28;20096;-31
2024/01/10 02:59:41;;;;;;;4.53;2.40;;;-2.90;66.80;;;;;;5051485;28;20021;-30
2024/01/10 03:02:06;;;;;;;6.72;2.83;;;-2.90;67.00;;;;;;5051558;28;20461;-32
2024/01/10 03:04:32;;;;;;;6.25;2.20;;;-2.90;67.00;;;;;;5051412;28;20078;-37
2024/01/10 03:06:57;;;;;;;6.43;2.95;;;-2.90;67.10;;;;;;5051240;28;20253;-33
2024/01/10 03:09:23;;;;;;;5.03;2.72;;;-2.90;67.10;;;;;;5051380;28;20122;-34
2024/01/10 03:11:49;;;;;;;5.45;2.47;;;-2.90;67.10;;;;;;5051712;28;20033;-32
2024/01/10 03:14:14;;;;;;;5.18;2.90;;;-2.90;67.20;;;;;;5054698;28;20025;-33
2024/01/10 03:16:40;;;;;;;3.20;2.15;;;-2.90;67.30;;;;;;5055624;28;20032;-32
2024/01/10 03:19:05;;;;;;;5.85;2.60;;;-2.90;67.40;;;;;;5055697;28;20025;-30
2024/01/10 03:21:31;;;;;;;6.57;2.78;;;-2.90;67.40;;;;;;5055260;28;20111;-34
2024/01/10 03:23:58;;;;;;;4.82;2.50;;;-3.00;67.40;;;;;;5055130;28;20163;-30
2024/01/10 03:26:24;;;;;;;4.40;2.35;;;-2.90;67.50;;;;;;5055360;28;20025;-33
2024/01/10 03:28:50;;;;;;;5.75;2.35;;;-2.90;67.60;;;;;;5055324;28;20327;-30
2024/01/10 03:31:16;;;;;;;5.32;2.88;;;-3.00;67.60;;;;;;5055453;28;20036;-31
2024/01/10 03:33:42;;;;;;;7.00;2.75;;;-2.90;67.60;;;;;;5055006;28;20061;-30
2024/01/10 03:36:11;;;;;;;5.28;2.47;;;-2.90;67.60;;;;;;5055362;28;20048;-32
2024/01/10 03:38:37;;;;;;;4.40;2.20;;;-3.00;67.60;;;;;;5054961;28;20029;-32
2024/01/10 03:41:02;;;;;;;4.97;2.80;;;-3.00;67.50;;;;;;5054936;28;20399;-30
2024/01/10 03:43:28;;;;;;;4.35;2.40;;;-3.00;67.60;;;;;;5055141;28;20028;-31
2024/01/10 03:45:53;;;;;;;5.10;2.88;;;-3.00;67.70;;;;;;5055030;28;20445;-33
2024/01/10 03:48:19;;;;;;;4.00;2.55;;;-3.00;67.80;;;;;;5054868;28;20025;-36
2024/01/10 03:50:45;;;;;;;4.93;2.67;;;-3.00;67.80;;;;;;5054912;28;20037;-31
2024/01/10 03:53:10;;;;;;;5.25;2.70;;;-3.10;67.80;;;;;;5055005;28;20017;-31
2024/01/10 03:55:36;;;;;;;6.05;2.88;;;-3.10;67.80;;;;;;5054695;28;20104;-32
2024/01/10 03:58:02;;;;;;;6.60;2.63;;;-3.10;67.90;;;;;;5054444;28;20029;-30
2024/01/10 04:00:28;;;;;;;5.20;3.20;;;-3.10;67.90;;;;;;5054834;28;20560;-30
2024/01/10 04:02:54;;;;;;;5.97;2.97;;;-3.10;67.80;;;;;;5054522;28;20100;-30
2024/01/10 04:05:20;;;;;;;5.97;3.00;;;-3.20;68.00;;;;;;5054328;28;20021;-32
2024/01/10 04:07:46;;;;;;;4.80;2.80;;;-3.20;68.10;;;;;;5054518;28;20017;-31
2024/01/10 04:10:13;;;;;;;4.43;2.75;;;-3.30;68.10;;;;;;5054748;28;20071;-29
2024/01/10 04:12:45;;;;;;;5.85;3.03;;;-3.30;68.90;;;;;;5054256;28;20078;-31
2024/01/10 04:15:11;;;;;;;5.93;2.80;;;-3.30;68.20;;;;;;5054315;28;20032;-31
2024/01/10 04:17:37;;;;;;;7.10;3.05;;;-3.30;68.30;;;;;;5054188;28;20021;-29
2024/01/10 04:20:03;;;;;;;5.50;2.92;;;-3.30;68.20;;;;;;5054425;28;20032;-35
2024/01/10 04:22:29;;;;;;;6.18;3.10;;;-3.40;68.40;;;;;;5054522;28;20116;-30
2024/01/10 04:24:59;;;;;;;5.80;2.90;;;-3.40;68.50;;;;;;5052921;28;20024;-31
2024/01/10 04:27:25;;;;;;;6.22;3.03;;;-3.40;68.60;;;;;;5053892;28;20037;-31
2024/01/10 04:29:50;;;;;;;6.20;2.80;;;-3.40;68.70;;;;;;5054038;28;20107;-32
2024/01/10 04:32:16;;;;;;;6.07;2.72;;;-3.40;68.70;;;;;;5054041;28;20028;-30
2024/01/10 04:34:41;;;;;;;6.20;2.88;;;-3.40;68.70;;;;;;5054030;28;20048;-36
2024/01/10 04:37:07;;;;;;;5.75;2.78;;;-3.40;68.70;;;;;;5054015;28;20100;-30
2024/01/10 04:39:34;;;;;;;6.32;3.00;;;-3.50;68.70;;;;;;5054135;28;20393;-29
2024/01/10 04:42:00;;;;;;;6.28;2.83;;;-3.50;68.70;;;;;;5054085;28;20020;-30
2024/01/10 04:44:25;;;;;;;4.97;3.08;;;-3.50;68.90;;;;;;5053977;28;20101;-30
2024/01/10 04:46:51;;;;;;;5.28;3.28;;;-3.50;68.90;;;;;;5053682;28;20378;-29
2024/01/10 04:49:17;;;;;;;5.72;2.83;;;-3.50;69.00;;;;;;5053538;28;20044;-32
2024/01/10 04:51:42;;;;;;;6.55;3.15;;;-3.60;69.00;;;;;;5053561;28;20032;-29
2024/01/10 04:54:08;;;;;;;5.85;2.97;;;-3.60;69.10;;;;;;5053932;28;20098;-33
2024/01/10 04:56:36;;;;;;;5.13;3.00;;;-3.60;69.20;;;;;;5053541;28;20021;-35
2024/01/10 04:59:02;;;;;;;6.38;3.08;;;-3.60;69.40;;;;;;5053341;28;20036;-30
2024/01/10 05:01:27;;;;;;;6.97;3.30;;;-3.70;69.50;;;;;;5053262;28;20029;-30
2024/01/10 05:03:53;;;;;;;6.50;2.97;;;-3.70;69.60;;;;;;5053388;28;20029;-35
2024/01/10 05:06:19;;;;;;;6.15;2.90;;;-3.70;69.70;;;;;;5053372;28;20029;-31
2024/01/10 05:08:45;;;;;;;6.30;3.03;;;-3.70;69.80;;;;;;5053263;28;20017;-31
2024/01/10 05:11:11;;;;;;;7.45;2.95;;;-3.70;69.80;;;;;;5053323;28;20048;-31
2024/01/10 05:13:36;;;;;;;6.35;2.95;;;-3.70;69.90;;;;;;5053146;28;20052;-31
2024/01/10 05:16:02;;;;;;;5.97;3.08;;;-3.70;70.00;;;;;;5053296;28;20025;-32
2024/01/10 05:18:28;;;;;;;5.85;3.10;;;-3.70;70.10;;;;;;5051775;28;20029;-34
2024/01/10 05:20:53;;;;;;;6.28;3.20;;;-3.70;70.10;;;;;;5051666;28;20033;-30
2024/01/10 05:23:19;;;;;;;6.50;3.30;;;-3.70;70.20;;;;;;5052884;28;20031;-30
2024/01/10 05:25:44;;;;;;;5.30;3.10;;;-3.70;70.20;;;;;;5052399;28;20021;-32
2024/01/10 05:28:10;;;;;;;3.33;2.42;;;-3.60;70.30;;;;;;5052828;28;20071;-37
2024/01/10 05:30:35;;;;;;;5.68;3.00;;;-3.60;70.40;;;;;;5053087;28;20158;-32
2024/01/10 05:33:01;;;;;;;6.47;2.92;;;-3.60;70.20;;;;;;5052726;28;20017;-30
2024/01/10 05:35:26;;;;;;;6.50;3.10;;;-3.60;70.30;;;;;;5052589;28;20032;-31
2024/01/10 05:37:52;;;;;;;5.50;2.92;;;-3.60;70.30;;;;;;5053043;28;20029;-30
2024/01/10 05:40:18;;;;;;;5.15;3.00;;;-3.50;70.40;;;;;;5052843;28;20049;-30
2024/01/10 05:42:44;;;;;;;5.47;2.97;;;-3.60;70.30;;;;;;5052968;28;20365;-33
2024/01/10 05:45:10;;;;;;;5.00;3.35;;;-3.50;70.40;;;;;;5052607;28;20021;-30
2024/01/10 05:47:36;;;;;;;6.35;2.80;;;-3.50;70.40;;;;;;5052408;28;20021;-31
2024/01/10 05:50:06;;;;;;;5.35;2.88;;;-3.50;70.40;;;;;;5052758;28;20024;-31
2024/01/10 05:52:32;;;;;;;6.38;3.05;;;-3.50;70.40;;;;;;5052681;28;20044;-31
2024/01/10 05:54:57;;;;;;;6.45;3.33;;;-3.40;70.50;;;;;;5052695;28;20358;-33
2024/01/10 05:57:23;;;;;;;6.38;2.83;;;-3.40;70.50;;;;;;5052275;28;20028;-31
2024/01/10 05:59:48;;;;;;;6.35;2.85;;;-3.40;70.50;;;;;;5052203;28;20020;-31
2024/01/10 06:02:16;;;;;;;6.20;3.17;;;-3.40;70.50;;;;;;5052224;28;20044;-29
2024/01/10 06:04:42;;;;;;;6.57;3.00;;;-3.40;70.40;;;;;;5052062;28;20032;-36
2024/01/10 06:07:07;;;;;;;7.18;3.17;;;-3.40;70.50;;;;;;5052075;28;20029;-35
2024/01/10 06:09:33;;;;;;;7.72;3.20;;;-3.40;70.40;;;;;;5052168;28;20039;-32
2024/01/10 06:11:58;;;;;;;4.20;2.75;;;-3.40;71.10;;;;;;5050730;28;20119;-33
2024/01/10 06:14:24;;;;;;;7.07;3.30;;;-3.40;70.40;;;;;;5052036;28;20025;-31
2024/01/10 06:16:49;;;;;;;6.13;2.83;;;-3.40;70.50;;;;;;5051754;28;20037;-30
2024/01/10 06:19:15;;;;;;;6.53;3.25;;;-3.40;70.50;;;;;;5052017;28;20035;-30
2024/01/10 06:21:41;;;;;;;5.95;3.35;;;-3.50;70.10;;;;;;5051869;28;20025;-30
2024/01/10 06:24:07;;;;;;;7.35;3.45;;;-3.50;70.30;;;;;;5051876;28;20025;-31
2024/01/10 06:26:33;;;;;;;7.82;3.63;;;-3.50;70.40;;;;;;5050468;28;20032;-31
2024/01/10 06:28:59;;;;;;;6.80;3.35;;;-3.50;70.50;;;;;;5051643;28;20033;-31
2024/01/10 06:31:24;;;;;;;8.52;4.10;;;-3.50;70.60;;;;;;5051951;28;20025;-34
2024/01/10 06:33:50;;;;;;;6.32;4.00;;;-3.50;70.50;;;;;;5051651;28;20119;-32
2024/01/10 06:36:15;;;;;;;6.63;3.53;;;-3.50;70.60;;;;;;5051753;28;20040;-35
2024/01/10 06:38:41;;;;;;;6.68;3.60;;;-3.50;70.60;;;;;;5051527;28;20064;-30
2024/01/10 06:41:10;;;;;;;7.88;3.83;;;-3.50;70.60;;;;;;5051521;28;20036;-33
2024/01/10 06:43:38;;;;;;;7.35;3.60;;;-3.60;70.60;;;;;;5052006;28;20074;-40
2024/01/10 06:46:05;;;;;;;6.82;3.67;;;-3.50;70.80;;;;;;5050267;28;20171;-32
2024/01/10 06:48:31;;;;;;;5.45;3.33;;;-3.50;70.80;;;;;;5050896;28;20017;-33
2024/01/10 06:50:57;;;;;;;7.82;4.05;;;-3.50;71.40;;;;;;5051636;28;20060;-31
2024/01/10 06:53:23;;;;;;;6.75;3.53;;;-3.50;70.70;;;;;;5051727;28;20083;-40
2024/01/10 06:55:48;;;;;;;7.82;4.00;;;-3.50;70.80;;;;;;5051540;28;20108;-30
2024/01/10 06:58:14;;;;;;;7.88;3.83;;;-3.50;70.90;;;;;;5049933;28;20466;-30
2024/01/10 07:00:39;;;;;;;7.45;3.90;;;-3.50;71.00;;;;;;5051237;28;20100;-33
2024/01/10 07:03:05;;;;;;;6.75;3.92;;;-3.50;71.00;;;;;;5051291;28;20021;-32
2024/01/10 07:05:31;;;;;;;6.43;3.58;;;-3.50;70.90;;;;;;5051586;28;20024;-34
2024/01/10 07:07:58;;;;;;;6.75;3.47;;;-3.60;70.90;;;;;;5051213;28;20048;-31
2024/01/10 07:10:27;;;;;;;7.85;4.40;;;-3.50;71.10;;;;;;5051358;28;20028;-31
2024/01/10 07:12:54;;;;;;;7.93;4.20;;;-3.60;71.10;;;;;;5051122;28;20033;-29
2024/01/10 07:15:20;;;;;;;7.88;3.88;;;-3.60;71.10;;;;;;5051916;28;20029;-31
2024/01/10 07:17:45;;;;;;;7.03;3.58;;;-3.60;71.20;;;;;;5051470;28;20017;-30
2024/01/10 07:20:12;;;;;;;7.93;4.00;;;-3.60;71.20;;;;;;5051240;28;20071;-30
2024/01/10 07:22:43;;;;;;;7.57;3.88;;;-3.60;71.20;;;;;;5051504;28;20053;-35
2024/01/10 07:25:14;;;;;;;8.50;4.25;;;-3.50;71.30;;;;;;5051381;28;20022;-35
2024/01/10 07:27:43;;;;;;;9.32;4.35;;;-3.50;71.10;;;;;;5051354;28;20025;-31
2024/01/10 07:30:13;;;;;;;10.48;4.30;;;-3.50;71.10;;;;;;5051231;28;20109;-33
2024/01/10 07:32:48;;;;;;;9.32;3.90;;;-3.50;71.10;;;;;;5051376;28;20536;-31
2024/01/10 07:35:13;;;;;;;9.73;4.50;;;-3.50;70.90;;;;;;5051049;28;20041;-32
2024/01/10 07:37:40;;;;;;;9.27;4.55;;;-3.50;70.90;;;;;;5050891;28;20083;-31
2024/01/10 07:40:08;;;;;;;8.77;4.38;;;-3.50;70.80;;;;;;5050122;28;20036;-29
2024/01/10 07:42:35;;;;;;;10.13;4.30;;;-3.50;70.90;;;;;;5051278;28;20049;-32
2024/01/10 07:45:04;;;;;;;9.13;4.43;;;-3.50;70.80;;;;;;5051212;28;20474;-29
2024/01/10 07:47:39;;;;;;;7.47;4.10;;;-3.50;70.80;;;;;;5050884;28;20049;-35
2024/01/10 07:50:09;;;;;;;9.73;4.53;;;-3.50;70.70;;;;;;5050120;28;20025;-35
2024/01/10 07:52:36;;;;;;;7.78;3.92;;;-3.50;70.70;;;;;;5051402;28;20107;-33
2024/01/10 07:55:04;;;;;;;9.77;4.93;;;-3.40;70.70;;;;;;5049481;28;20025;-32
2024/01/10 07:57:30;;;;;;;10.32;4.68;;;-3.40;70.60;;;;;;5050907;28;20056;-34
2024/01/10 07:59:56;;;;;;;8.48;4.75;;;-3.40;70.60;;;;;;5053540;28;20059;-32
2024/01/10 08:02:22;;;;;;;8.70;4.60;;;-3.30;70.50;;;;;;5054726;28;20039;-32
2024/01/10 08:04:48;;;;;;;9.80;4.57;;;-3.30;70.50;;;;;;5054764;28;20013;-32
2024/01/10 08:07:13;;;;;;;9.77;5.03;;;-3.30;70.40;;;;;;5054658;28;20021;-37
2024/01/10 08:09:39;;;;;;;10.52;5.10;;;-3.20;70.40;;;;;;5054429;28;20398;-30
2024/01/10 08:12:05;;;;;;;9.63;5.20;;;-3.20;70.20;;;;;;5054692;28;20421;-31
2024/01/10 08:14:30;;;;;;;10.32;4.60;;;-3.20;70.20;;;;;;5054685;28;20028;-34
2024/01/10 08:16:58;;;;;;;9.90;4.70;;;-3.10;70.30;;;;;;5054265;28;20025;-33
2024/01/10 08:19:27;;;;;;;8.45;4.35;;;-3.10;71.00;;;;;;5054666;28;20381;-31
2024/01/10 08:21:56;;;;;;;8.98;4.32;;;-3.10;70.40;;;;;;5054104;28;20500;-28
2024/01/10 08:24:22;;;;;;;9.45;5.05;;;-3.00;70.30;;;;;;5054331;28;20021;-30
2024/01/10 08:26:51;;;;;;;9.88;4.97;;;-3.00;70.20;;;;;;5053957;28;20037;-33
2024/01/10 08:29:18;;;;;;;11.30;5.18;;;-3.00;70.10;;;;;;5054343;28;20036;-35
2024/01/10 08:31:45;;;;;;;10.15;4.82;;;-2.90;70.60;;;;;;5054385;28;20355;-30
2024/01/10 08:34:10;;;;;;;9.77;4.80;;;-2.90;70.60;;;;;;5053848;28;20045;-30
2024/01/10 08:36:36;;;;;;;9.98;4.80;;;-2.90;70.30;;;;;;5053837;28;20124;-33
2024/01/10 08:39:03;;;;;;;10.80;4.80;;;-2.80;70.40;;;;;;5052843;28;20037;-30
2024/01/10 08:41:30;;;;;;;9.80;5.10;;;-2.80;70.60;;;;;;5053638;28;20021;-31
2024/01/10 08:43:55;;;;;;;12.60;5.32;;;-2.80;70.10;;;;;;5054392;28;20109;-33
2024/01/10 08:46:21;;;;;;;10.63;5.28;;;-2.80;69.80;;;;;;5053810;28;20401;-32
2024/01/10 08:48:47;;;;;;;10.60;5.10;;;-2.70;69.80;;;;;;5053638;28;20098;-29
2024/01/10 08:51:16;;;;;;;10.00;4.85;;;-2.70;70.70;;;;;;5053592;28;20117;-29
2024/01/10 08:53:42;;;;;;;10.35;5.20;;;-2.60;70.30;;;;;;5053933;28;20523;-35
2024/01/10 08:56:07;;;;;;;10.85;5.35;;;-2.60;69.90;;;;;;5053574;28;20048;-31
2024/01/10 08:58:33;;;;;;;10.57;4.90;;;-2.60;70.00;;;;;;5053272;28;20028;-30
2024/01/10 09:00:59;;;;;;;11.60;5.78;;;-2.60;70.00;;;;;;5053295;28;20035;-32
2024/01/10 09:03:25;;;;;;;8.93;4.80;;;-2.60;70.00;;;;;;5053056;28;20108;-29
2024/01/10 09:05:50;;;;;;;8.60;4.68;;;-2.60;70.40;;;;;;5053342;28;20017;-37
2024/01/10 09:08:17;;;;;;;10.45;5.30;;;-2.50;71.00;;;;;;5053218;28;20121;-30
2024/01/10 09:10:42;;;;;;;11.38;5.03;;;-2.50;71.30;;;;;;5052522;28;20033;-34
2024/01/10 09:13:08;;;;;;;10.48;5.70;;;-2.40;71.70;;;;;;5053271;28;20033;-34
2024/01/10 09:15:33;;;;;;;11.55;5.70;;;-2.40;71.20;;;;;;5053519;28;20041;-29
2024/01/10 09:18:00;;;;;;;9.52;5.18;;;-2.30;71.50;;;;;;5053425;28;20028;-29
2024/01/10 09:20:25;;;;;;;10.23;5.07;;;-2.30;71.30;;;;;;5053471;28;20035;-31
2024/01/10 09:22:51;;;;;;;12.88;5.95;;;-2.20;71.50;;;;;;5053210;28;20381;-31
2024/01/10 09:25:17;;;;;;;10.82;5.55;;;-2.20;70.30;;;;;;5053079;28;20036;-33
2024/01/10 09:27:43;;;;;;;14.65;6.43;;;-2.20;70.40;;;;;;5053113;28;20378;-30
2024/01/10 09:30:10;;;;;;;12.13;5.88;;;-2.10;70.20;;;;;;5053277;28;20373;-30
2024/01/10 09:32:36;;;;;;;12.05;5.88;;;-2.10;71.40;;;;;;5053203;28;20017;-30
2024/01/10 09:35:02;;;;;;;11.80;5.95;;;-2.10;70.80;;;;;;5052605;28;20064;-33
2024/01/10 09:37:27;;;;;;;10.02;5.70;;;-2.00;69.80;;;;;;5052734;28;20056;-30
2024/01/10 09:39:53;;;;;;;12.40;5.18;;;-2.00;70.10;;;;;;5052838;28;20033;-31
2024/01/10 09:42:21;;;;;;;12.30;5.50;;;-1.90;71.00;;;;;;5052899;28;20033;-30
2024/01/10 09:44:47;;;;;;;13.20;5.78;;;-1.80;72.30;;;;;;5053012;28;20113;-31
2024/01/10 09:47:15;;;;;;;10.68;5.20;;;-1.80;71.60;;;;;;5052591;28;20111;-32
2024/01/10 09:49:44;;;;;;;11.45;5.60;;;-1.70;71.30;;;;;;5052437;28;20021;-35
2024/01/10 09:52:14;;;;;;;10.00;5.32;;;-1.60;71.20;;;;;;5052494;28;20024;-33
2024/01/10 09:54:40;;;;;;;12.07;5.50;;;-1.60;71.00;;;;;;5052928;28;20048;-30
2024/01/10 09:57:06;;;;;;;11.10;5.72;;;-1.50;70.40;;;;;;5052438;28;20067;-39
2024/01/10 09:59:32;;;;;;;9.05;5.03;;;-1.50;70.10;;;;;;5051228;28;20064;-34
2024/01/10 10:02:00;;;;;;;11.07;5.50;;;-1.40;70.00;;;;;;5052473;28;20037;-34
2024/01/10 10:04:28;;;;;;;9.80;5.30;;;-1.40;68.90;;;;;;5052688;28;20017;-33
2024/01/10 10:07:01;;;;;;;9.23;5.00;;;-1.30;70.00;;;;;;5052461;28;20420;-34
2024/01/10 10:09:28;;;;;;;11.00;5.80;;;-1.30;69.70;;;;;;5052535;28;20029;-34
2024/01/10 10:11:57;;;;;;;9.18;5.03;;;-1.20;69.90;;;;;;5052367;28;20041;-30
2024/01/10 10:14:26;;;;;;;11.75;5.78;;;-1.20;68.30;;;;;;5052248;28;20028;-30
2024/01/10 10:16:52;;;;;;;12.43;6.43;;;-1.10;69.00;;;;;;5052427;28;20489;-37
2024/01/10 10:19:26;;;;;;;12.20;5.90;;;-1.10;67.40;;;;;;5052422;28;20385;-32
2024/01/10 10:21:52;;;;;;;14.65;5.80;;;-1.00;67.20;;;;;;5052190;28;20115;-30
2024/01/10 10:24:17;;;;;;;10.68;5.60;;;-1.00;68.80;;;;;;5051971;28;20121;-36
2024/01/10 10:26:43;;;;;;;11.45;5.32;;;-0.90;68.80;;;;;;5051903;28;20040;-30
2024/01/10 10:29:10;;;;;;;12.10;5.95;;;-0.90;68.20;;;;;;5051816;28;20074;-32
2024/01/10 10:31:35;;;;;;;10.52;5.35;;;-0.80;65.70;;;;;;5052210;28;20025;-29
2024/01/10 10:34:02;;;;;;;11.73;5.78;;;-0.80;67.70;;;;;;5051719;28;20101;-29
2024/01/10 10:36:31;;;;;;;10.77;5.50;;;-0.70;67.90;;;;;;5052052;28;20488;-32
2024/01/10 10:39:01;;;;;;;10.25;5.43;;;-0.70;68.00;;;;;;5051717;28;20056;-32
2024/01/10 10:41:30;;;;;;;10.43;5.30;;;-0.60;67.70;;;;;;5051990;28;20037;-31
2024/01/10 10:43:56;;;;;;;9.35;5.05;;;-0.50;66.10;;;;;;5050752;28;20387;-31
2024/01/10 10:46:27;;;;;;;9.15;5.07;;;-0.50;67.40;;;;;;5051986;28;20354;-32
2024/01/10 10:48:53;;;;;;;12.07;6.15;;;-0.40;68.20;;;;;;5051653;28;20060;-35
2024/01/10 10:51:30;;;;;;;9.23;4.75;;;-0.40;68.00;;;;;;5051882;28;20029;-32
2024/01/10 10:53:59;;;;;;;12.02;5.50;;;-0.30;67.90;;;;;;5051833;28;20545;-33
2024/01/10 10:56:29;;;;;;;9.82;5.40;;;-0.20;67.10;;;;;;5051676;28;20025;-34
2024/01/10 10:58:56;;;;;;;11.77;5.75;;;-0.20;66.70;;;;;;5051718;28;20024;-35
2024/01/10 11:01:23;;;;;;;8.85;4.97;;;-0.10;66.70;;;;;;5051451;28;20104;-31
2024/01/10 11:03:49;;;;;;;9.15;4.65;;;-0.10;67.10;;;;;;5051160;28;20104;-31
2024/01/10 11:06:17;;;;;;;12.23;4.97;;;0.00;68.10;;;;;;5051553;28;20044;-34
2024/01/10 11:08:50;;;;;;;9.98;4.80;;;0.00;68.80;;;;;;5051181;28;20100;-30
2024/01/10 11:11:45;;;;;;;13.10;5.60;;;0.10;68.40;;;;;;5051275;28;20029;-31
2024/01/10 11:14:16;;;;;;;10.70;4.82;;;0.10;69.10;;;;;;5051522;28;20036;-35
2024/01/10 11:17:19;;;;;;;13.77;5.75;;;0.20;68.90;;;;;;5051337;28;20024;-31
2024/01/10 11:20:13;;;;;;;12.30;6.00;;;0.20;68.30;;;;;;5051443;28;20437;-37
2024/01/10 11:23:06;;;;;;;8.93;5.07;;;0.20;68.60;;;;;;5040613;28;20079;-36
2024/01/10 11:25:35;;;;;;;10.25;5.38;;;0.20;68.90;;;;;;5050994;28;20029;-30
2024/01/10 11:28:04;;;;;;;12.68;6.45;;;0.30;65.80;;;;;;5051271;28;20094;-30
2024/01/10 11:30:40;;;;;;;10.98;6.13;;;0.30;65.50;;;;;;5051170;28;20489;-37
2024/01/10 11:33:19;;;;;;;16.15;6.45;;;0.30;64.80;;;;;;5051455;28;20029;-34
2024/01/10 11:36:13;;;;;;;13.70;6.20;;;0.40;63.90;;;;;;5055412;28;20462;-37
2024/01/10 11:38:44;;;;;;;15.00;6.45;;;0.50;64.00;;;;;;5055215;28;20028;-37
2024/01/10 11:41:19;;;;;;;12.52;6.32;;;0.50;61.40;;;;;;5055170;28;20041;-33
2024/01/10 11:43:45;;;;;;;10.02;6.07;;;0.60;63.10;;;;;;5055236;28;20354;-32
2024/01/10 11:46:12;;;;;;;10.82;5.78;;;0.60;63.30;;;;;;5054896;28;20025;-39
2024/01/10 11:48:38;;;;;;;13.18;5.10;;;0.70;65.20;;;;;;5054640;28;20520;-34
2024/01/10 11:51:04;;;;;;;12.20;5.50;;;0.70;65.70;;;;;;5054967;28;20307;-37
2024/01/10 11:53:47;;;;;;;10.15;5.05;;;0.80;65.10;;;;;;5054691;28;20029;-32
2024/01/10 11:56:18;;;;;;;11.85;5.57;;;0.90;65.70;;;;;;5054992;28;20067;-30
2024/01/10 11:59:05;;;;;;;10.95;5.32;;;0.90;66.90;;;;;;5054424;28;20085;-36
2024/01/10 12:01:32;;;;;;;9.45;4.72;;;1.00;67.40;;;;;;5054734;28;20362;-36
2024/01/10 12:03:59;;;;;;;14.02;5.32;;;1.10;66.80;;;;;;5054526;28;20021;-37
2024/01/10 12:06:26;;;;;;;10.30;5.30;;;1.10;65.80;;;;;;5054621;28;20104;-32
2024/01/10 12:08:51;;;;;;;9.15;4.70;;;1.10;66.30;;;;;;5054353;28;20534;-41
2024/01/10 12:11:17;;;;;;;10.80;4.95;;;1.20;70.30;;;;;;5054773;28;20107;-35
2024/01/10 12:13:43;;;;;;;8.57;4.68;;;1.20;71.00;;;;;;5054809;28;20020;-36
2024/01/10 12:16:10;;;;;;;10.77;4.97;;;1.20;71.50;;;;;;5054658;28;20466;-37
2024/01/10 12:18:35;;;;;;;9.02;4.70;;;1.30;71.40;;;;;;5054386;28;20398;-35
2024/01/10 12:21:01;;;;;;;9.38;4.80;;;1.40;72.00;;;;;;5054188;28;20028;-37
2024/01/10 12:23:31;;;;;;;9.25;4.90;;;1.40;71.60;;;;;;5054252;28;20094;-38
2024/01/10 12:26:01;;;;;;;12.23;5.55;;;1.50;71.70;;;;;;5054447;28;20060;-36
2024/01/10 12:28:26;;;;;;;10.45;5.40;;;1.50;71.70;;;;;;5054044;28;20079;-35
2024/01/10 12:30:52;;;;;;;9.38;5.20;;;1.50;69.80;;;;;;5054689;28;20053;-36
2024/01/10 12:33:22;;;;;;;10.25;5.55;;;1.60;68.40;;;;;;5054256;28;20550;-35
2024/01/10 12:36:04;;;;;;;9.80;5.18;;;1.50;67.10;;;;;;5054085;28;20025;-34
2024/01/10 12:38:31;;;;;;;11.43;5.40;;;1.50;68.50;;;;;;5053994;28;20032;-36
2024/01/10 12:40:57;;;;;;;11.38;5.68;;;1.60;69.10;;;;;;5053828;28;20060;-35
2024/01/10 12:43:23;;;;;;;13.88;6.18;;;1.60;67.30;;;;;;5054025;28;20025;-37
2024/01/10 12:46:01;;;;;;;9.48;5.30;;;1.60;64.70;;;;;;5052650;28;20032;-39